createdAt,value
2023-05-12T00:01:29.433Z,17.75
2023-05-12T00:03:57.459Z,17.85
2023-05-12T00:06:26.073Z,15.32
2023-05-12T00:08:53.417Z,15.52
2023-05-12T00:11:21.600Z,12.15
2023-05-12T00:13:49.354Z,15.90
2023-05-12T00:16:18.830Z,12.25
2023-05-12T00:18:46.374Z,12.48
2023-05-12T00:21:13.798Z,10.85
2023-05-12T00:23:41.238Z,10.25
2023-05-12T00:26:08.628Z,15.45
2023-05-12T00:28:35.992Z,16.80
2023-05-12T00:31:04.052Z,14.90
2023-05-12T00:33:31.472Z,18.38
2023-05-12T00:36:01.230Z,14.90
2023-05-12T00:38:28.597Z,14.63
2023-05-12T00:40:56.027Z,13.07
2023-05-12T00:43:23.455Z,13.38
2023-05-12T00:45:51.039Z,12.48
2023-05-12T00:48:18.609Z,12.15
2023-05-12T00:50:45.999Z,14.25
2023-05-12T00:53:13.428Z,13.10
2023-05-12T00:55:41.058Z,11.70
2023-05-12T00:58:08.488Z,17.20
2023-05-12T01:00:37.172Z,13.75
2023-05-12T01:03:04.807Z,15.07
2023-05-12T01:06:01.604Z,12.75
2023-05-12T01:08:29.114Z,12.73
2023-05-12T01:10:57.145Z,14.48
2023-05-12T01:13:24.669Z,17.27
2023-05-12T01:15:51.983Z,15.45
2023-05-12T01:18:20.200Z,22.33
2023-05-12T01:20:48.293Z,18.83
2023-05-12T01:23:19.541Z,17.02
2023-05-12T01:25:47.370Z,21.02
2023-05-12T01:28:15.253Z,20.60
2023-05-12T01:30:42.729Z,23.48
2023-05-12T01:33:12.239Z,21.85
2023-05-12T01:35:40.009Z,16.83
2023-05-12T01:38:07.422Z,19.67
2023-05-12T01:40:38.371Z,18.92
2023-05-12T01:43:06.110Z,18.58
2023-05-12T01:45:33.960Z,16.67
2023-05-12T01:48:01.493Z,17.60
2023-05-12T01:50:28.804Z,16.88
2023-05-12T01:52:56.217Z,16.85
2023-05-12T01:55:23.578Z,14.85
2023-05-12T01:57:56.741Z,15.23
2023-05-12T02:00:24.189Z,16.85
2023-05-12T02:02:54.490Z,17.60
2023-05-12T02:05:22.690Z,17.15
2023-05-12T02:07:50.979Z,14.25
2023-05-12T02:10:18.838Z,16.05
2023-05-12T02:12:46.441Z,15.50
2023-05-12T02:15:14.188Z,16.70
2023-05-12T02:17:45.520Z,20.77
2023-05-12T02:20:14.704Z,18.52
2023-05-12T02:22:43.671Z,19.02
2023-05-12T02:25:11.056Z,18.58
2023-05-12T02:27:38.535Z,16.95
2023-05-12T02:30:07.059Z,18.02
2023-05-12T02:32:34.500Z,19.20
2023-05-12T02:35:02.015Z,19.27
2023-05-12T02:37:29.798Z,19.08
2023-05-12T02:39:57.247Z,19.73
2023-05-12T02:42:28.736Z,20.52
2023-05-12T02:44:56.242Z,18.58
2023-05-12T02:47:23.743Z,19.85
2023-05-12T02:49:51.462Z,19.63
2023-05-12T02:52:18.942Z,19.80
2023-05-12T02:54:46.271Z,20.05
2023-05-12T02:57:13.634Z,22.02
2023-05-12T02:59:41.024Z,22.10
2023-05-12T03:02:08.633Z,20.98
2023-05-12T03:04:36.957Z,21.13
2023-05-12T03:07:06.090Z,18.83
2023-05-12T03:09:34.277Z,19.90
2023-05-12T03:12:01.923Z,20.70
2023-05-12T03:14:29.556Z,21.48
2023-05-12T03:16:57.169Z,21.83
2023-05-12T03:19:24.813Z,20.90
2023-05-12T03:21:52.460Z,22.95
2023-05-12T03:24:19.951Z,23.95
2023-05-12T03:26:48.166Z,21.60
2023-05-12T03:29:15.585Z,20.77
2023-05-12T03:31:43.223Z,21.70
2023-05-12T03:34:11.023Z,18.73
2023-05-12T03:36:38.566Z,23.77
2023-05-12T03:39:08.733Z,23.52
2023-05-12T03:41:37.197Z,17.90
2023-05-12T03:44:05.924Z,15.40
2023-05-12T03:46:33.404Z,17.40
2023-05-12T03:49:01.066Z,20.23
2023-05-12T03:51:28.879Z,19.23
2023-05-12T03:53:56.236Z,18.23
2023-05-12T03:56:23.618Z,18.65
2023-05-12T03:58:51.074Z,17.63
2023-05-12T04:01:18.404Z,17.77
2023-05-12T04:03:46.197Z,16.17
2023-05-12T04:06:13.645Z,14.23
2023-05-12T04:08:42.194Z,13.35
2023-05-12T04:11:09.726Z,16.95
2023-05-12T04:13:37.133Z,15.13
2023-05-12T04:16:05.206Z,14.50
2023-05-12T04:18:32.681Z,13.63
2023-05-12T04:21:00.552Z,15.25
2023-05-12T04:23:28.015Z,14.02
2023-05-12T04:25:55.376Z,13.88
2023-05-12T04:28:22.881Z,13.25
2023-05-12T04:30:50.488Z,11.80
2023-05-12T04:33:18.124Z,13.13
2023-05-12T04:35:45.648Z,12.55
2023-05-12T04:38:14.146Z,11.85
2023-05-12T04:40:41.848Z,12.63
2023-05-12T04:45:58.127Z,10.05
2023-05-12T04:48:29.015Z,11.75
2023-05-12T04:50:59.862Z,10.70
2023-05-12T04:53:27.697Z,11.88
2023-05-12T04:55:56.606Z,11.65
2023-05-12T04:58:24.317Z,11.15
2023-05-12T05:00:53.006Z,9.85
2023-05-12T05:03:20.611Z,10.48
2023-05-12T05:05:49.108Z,11.07
2023-05-12T05:08:17.037Z,9.63
2023-05-12T05:10:44.536Z,12.00
2023-05-12T05:13:11.937Z,14.02
2023-05-12T05:15:39.314Z,9.80
2023-05-12T05:18:07.020Z,7.55
2023-05-12T05:20:34.613Z,6.60
2023-05-12T05:23:02.357Z,5.47
2023-05-12T05:25:29.808Z,7.63
2023-05-12T05:27:57.304Z,6.65
2023-05-12T05:30:25.042Z,5.60
2023-05-12T05:32:52.552Z,7.15
2023-05-12T05:35:20.348Z,9.35
2023-05-12T05:37:50.863Z,6.85
2023-05-12T05:40:18.369Z,7.18
2023-05-12T05:42:46.122Z,8.63
2023-05-12T05:45:13.527Z,6.07
2023-05-12T05:47:42.434Z,6.85
2023-05-12T05:50:10.940Z,5.25
2023-05-12T05:52:40.414Z,6.53
2023-05-12T05:55:08.675Z,6.55
2023-05-12T05:57:36.313Z,6.63
2023-05-12T06:00:05.150Z,6.03
2023-05-12T06:02:41.685Z,22.15
2023-05-12T06:05:14.226Z,11.02
2023-05-12T06:07:44.735Z,6.33
2023-05-12T06:10:12.126Z,7.95
2023-05-12T06:12:41.194Z,7.22
2023-05-12T06:15:09.094Z,6.18
2023-05-12T06:17:36.496Z,6.68
2023-05-12T06:20:05.313Z,6.93
2023-05-12T06:22:34.702Z,7.10
2023-05-12T06:25:02.306Z,9.52
2023-05-12T06:27:29.665Z,9.57
2023-05-12T06:29:57.034Z,23.42
2023-05-12T06:32:24.411Z,27.58
2023-05-12T06:34:51.863Z,66.00
2023-05-12T06:37:19.197Z,28.25
2023-05-12T06:39:46.521Z,18.63
2023-05-12T06:42:13.864Z,8.52
2023-05-12T06:44:42.669Z,6.00
2023-05-12T06:47:10.097Z,17.90
2023-05-12T06:49:38.716Z,18.27
2023-05-12T06:52:06.773Z,9.98
2023-05-12T06:54:34.813Z,8.52
2023-05-12T06:57:02.181Z,11.65
2023-05-12T06:59:29.806Z,12.02
2023-05-12T07:01:57.291Z,8.05
2023-05-12T07:04:26.836Z,8.82
2023-05-12T07:06:54.208Z,8.60
2023-05-12T07:09:21.655Z,6.88
2023-05-12T07:11:49.272Z,4.80
2023-05-12T07:14:17.692Z,6.13
2023-05-12T07:16:45.100Z,11.38
2023-05-12T07:19:12.704Z,11.05
2023-05-12T07:21:40.083Z,9.00
2023-05-12T07:24:07.587Z,5.40
2023-05-12T07:26:35.045Z,8.38
2023-05-12T07:29:04.026Z,10.55
2023-05-12T07:31:31.423Z,7.63
2023-05-12T07:33:58.839Z,18.98
2023-05-12T07:36:26.177Z,18.58
2023-05-12T07:38:53.599Z,7.85
2023-05-12T07:41:21.222Z,15.43
2023-05-12T07:43:48.563Z,18.83
2023-05-12T07:46:15.971Z,23.63
2023-05-12T07:48:43.385Z,20.00
2023-05-12T07:51:10.686Z,8.15
2023-05-12T07:53:38.073Z,4.35
2023-05-12T07:56:08.180Z,4.45
2023-05-12T07:58:35.620Z,4.80
2023-05-12T08:01:06.073Z,5.78
2023-05-12T08:03:34.986Z,4.10
2023-05-12T08:06:03.592Z,4.82
2023-05-12T08:08:31.582Z,5.65
2023-05-12T08:10:58.899Z,5.25
2023-05-12T08:13:28.891Z,5.55
2023-05-12T08:15:56.230Z,5.60
2023-05-12T08:18:23.648Z,6.45
2023-05-12T08:20:51.058Z,9.65
2023-05-12T08:23:18.485Z,6.80
2023-05-12T08:25:46.409Z,13.68
2023-05-12T08:28:13.960Z,11.77
2023-05-12T08:30:45.259Z,19.92
2023-05-12T08:33:12.894Z,23.73
2023-05-12T08:35:40.276Z,11.88
2023-05-12T08:38:07.564Z,7.47
2023-05-12T08:40:38.197Z,7.93
2023-05-12T08:43:15.843Z,6.35
2023-05-12T08:45:43.214Z,4.43
2023-05-12T08:48:11.287Z,7.95
2023-05-12T08:50:38.881Z,9.13
2023-05-12T08:53:07.668Z,8.05
2023-05-12T08:55:35.436Z,11.35
2023-05-12T08:58:03.265Z,9.07
2023-05-12T09:00:31.243Z,9.23
2023-05-12T09:02:59.664Z,11.88
2023-05-12T09:05:27.357Z,7.53
2023-05-12T09:07:55.841Z,6.55
2023-05-12T09:10:34.271Z,5.90
2023-05-12T09:13:13.568Z,11.02
2023-05-12T09:15:46.030Z,8.52
2023-05-12T09:18:13.391Z,3.58
2023-05-12T09:20:40.748Z,6.45
2023-05-12T09:23:22.013Z,5.93
2023-05-12T09:26:00.822Z,6.38
2023-05-12T09:28:36.573Z,3.75
2023-05-12T09:31:15.022Z,6.43
2023-05-12T09:33:42.456Z,2.47
2023-05-12T09:36:09.822Z,5.60
2023-05-12T09:38:37.271Z,9.23
2023-05-12T09:41:04.702Z,7.90
2023-05-12T09:43:32.116Z,5.20
2023-05-12T09:46:05.945Z,5.15
2023-05-12T09:48:33.787Z,12.30
2023-05-12T09:51:01.188Z,5.53
2023-05-12T09:53:28.890Z,1.88
2023-05-12T09:55:56.281Z,4.00
2023-05-12T09:58:23.756Z,5.45
2023-05-12T10:01:13.494Z,4.00
2023-05-12T10:03:38.539Z,5.03
2023-05-12T10:06:07.788Z,3.03
2023-05-12T10:08:47.311Z,5.85
2023-05-12T10:11:14.713Z,3.55
2023-05-12T10:13:42.105Z,3.05
2023-05-12T10:16:09.721Z,12.07
2023-05-12T10:18:37.353Z,12.45
2023-05-12T10:21:04.901Z,2.53
2023-05-12T10:23:32.312Z,6.32
2023-05-12T10:26:02.213Z,2.95
2023-05-12T10:28:29.610Z,4.88
2023-05-12T10:31:00.432Z,6.22
2023-05-12T10:33:27.892Z,4.15
2023-05-12T10:35:55.300Z,3.30
2023-05-12T10:38:22.757Z,1.98
2023-05-12T10:41:01.314Z,2.10
2023-05-12T10:43:30.076Z,1.63
2023-05-12T10:46:12.770Z,1.40
2023-05-12T10:49:10.256Z,2.75
2023-05-12T10:51:37.750Z,1.75
2023-05-12T10:54:09.721Z,4.53
2023-05-12T10:56:37.368Z,2.17
2023-05-12T10:59:19.566Z,2.72
2023-05-12T11:02:04.012Z,3.22
2023-05-12T11:07:26.574Z,1.50
2023-05-12T11:09:59.532Z,9.63
2023-05-12T11:12:32.698Z,3.40
2023-05-12T11:15:01.469Z,2.40
2023-05-12T11:17:31.309Z,2.22
2023-05-12T11:19:58.822Z,4.10
2023-05-12T11:22:26.743Z,11.10
2023-05-12T11:24:54.321Z,8.73
2023-05-12T11:27:22.826Z,1.95
2023-05-12T11:30:01.261Z,4.95
2023-05-12T11:32:29.612Z,2.83
2023-05-12T11:35:10.035Z,5.88
2023-05-12T11:37:41.558Z,4.40
2023-05-12T11:40:16.828Z,5.32
2023-05-12T11:42:48.399Z,11.35
2023-05-12T11:45:23.349Z,5.90
2023-05-12T11:47:51.365Z,4.25
2023-05-12T11:50:23.286Z,5.35
2023-05-12T11:52:51.382Z,4.57
2023-05-12T11:55:26.016Z,4.28
2023-05-12T11:58:02.762Z,5.25
2023-05-12T12:00:32.764Z,3.78
2023-05-12T12:03:07.373Z,4.35
2023-05-12T12:05:34.809Z,5.45
2023-05-12T12:08:10.040Z,4.22
2023-05-12T12:10:38.157Z,4.95
2023-05-12T12:13:06.012Z,4.60
2023-05-12T12:15:33.558Z,6.45
2023-05-12T12:18:00.985Z,4.63
2023-05-12T12:20:29.588Z,4.03
2023-05-12T12:22:56.993Z,5.00
2023-05-12T12:25:24.422Z,6.38
2023-05-12T12:27:52.948Z,8.88
2023-05-12T12:30:20.395Z,8.32
2023-05-12T12:32:47.774Z,6.40
2023-05-12T12:35:15.638Z,5.07
2023-05-12T12:37:43.072Z,7.05
2023-05-12T12:40:11.525Z,4.70
2023-05-12T12:42:40.632Z,10.30
2023-05-12T12:45:11.070Z,10.98
2023-05-12T12:47:39.023Z,6.07
2023-05-12T12:50:10.631Z,4.80
2023-05-12T12:52:38.643Z,5.55
2023-05-12T12:55:07.071Z,6.03
2023-05-12T12:57:34.898Z,8.63
2023-05-12T13:00:04.595Z,7.20
2023-05-12T13:02:32.095Z,5.82
2023-05-12T13:05:03.727Z,6.32
2023-05-12T13:07:31.191Z,8.80
2023-05-12T13:09:58.578Z,9.23
2023-05-12T13:12:26.207Z,8.32
2023-05-12T13:14:53.765Z,9.95
2023-05-12T13:17:21.097Z,9.38
2023-05-12T13:19:48.499Z,7.88
2023-05-12T13:22:15.889Z,10.43
2023-05-12T13:24:43.206Z,20.02
2023-05-12T13:27:10.709Z,10.48
2023-05-12T13:29:38.303Z,12.57
2023-05-12T13:32:05.974Z,9.13
2023-05-12T13:34:33.546Z,7.45
2023-05-12T13:37:02.350Z,9.68
2023-05-12T13:39:30.271Z,8.68
2023-05-12T13:41:58.212Z,11.68
2023-05-12T13:44:25.635Z,11.32
2023-05-12T13:46:53.300Z,14.18
2023-05-12T13:49:20.707Z,14.00
2023-05-12T13:51:48.105Z,12.95
2023-05-12T13:54:15.973Z,11.20
2023-05-12T13:56:43.344Z,9.93
2023-05-12T13:59:10.727Z,9.82
2023-05-12T14:01:39.301Z,11.93
2023-05-12T14:04:06.692Z,9.85
2023-05-12T14:06:34.166Z,8.52
2023-05-12T14:09:01.624Z,14.52
2023-05-12T14:11:28.949Z,10.90
2023-05-12T14:13:56.319Z,12.07
2023-05-12T14:16:23.777Z,13.82
2023-05-12T14:18:52.736Z,15.07
2023-05-12T14:21:25.713Z,12.93
2023-05-12T14:23:53.721Z,12.15
2023-05-12T14:26:22.566Z,13.20
2023-05-12T14:28:50.075Z,12.65
2023-05-12T14:31:17.958Z,10.80
2023-05-12T14:33:45.404Z,12.13
2023-05-12T14:36:12.755Z,10.13
2023-05-12T14:38:40.193Z,12.18
2023-05-12T14:41:08.462Z,19.77
2023-05-12T14:43:35.958Z,10.85
2023-05-12T14:46:04.382Z,12.48
2023-05-12T14:48:31.852Z,10.27
2023-05-12T14:50:59.334Z,11.20
2023-05-12T14:53:26.679Z,10.98
2023-05-12T14:55:54.162Z,9.68
2023-05-12T14:58:21.946Z,9.45
2023-05-12T15:00:50.789Z,11.50
2023-05-12T15:03:18.589Z,13.02
2023-05-12T15:06:04.754Z,15.70
2023-05-12T15:08:33.754Z,14.43
2023-05-12T15:11:01.032Z,13.75
2023-05-12T15:13:28.392Z,10.35
2023-05-12T15:15:56.723Z,8.77
2023-05-12T15:18:24.596Z,10.38
2023-05-12T15:20:52.115Z,9.75
2023-05-12T15:23:19.489Z,10.40
2023-05-12T15:25:46.822Z,11.93
2023-05-12T15:28:14.270Z,11.95
2023-05-12T15:30:41.692Z,14.05
2023-05-12T15:33:09.158Z,11.20
2023-05-12T15:35:36.624Z,12.50
2023-05-12T15:38:04.053Z,9.68
2023-05-12T15:40:31.389Z,12.25
2023-05-12T15:42:58.895Z,13.48
2023-05-12T15:45:26.255Z,9.30
2023-05-12T15:47:53.697Z,11.90
2023-05-12T15:50:22.933Z,10.50
2023-05-12T15:52:50.774Z,11.20
2023-05-12T15:55:18.439Z,12.73
2023-05-12T15:57:45.885Z,12.25
2023-05-12T16:00:13.795Z,14.50
2023-05-12T16:02:41.143Z,11.10
2023-05-12T16:05:09.633Z,8.52
2023-05-12T16:07:37.038Z,11.30
2023-05-12T16:10:05.236Z,11.38
2023-05-12T16:12:32.596Z,12.15
2023-05-12T16:15:00.144Z,9.35
2023-05-12T16:17:27.811Z,8.80
2023-05-12T16:19:56.909Z,11.05
2023-05-12T16:22:24.374Z,8.75
2023-05-12T16:24:53.735Z,8.73
2023-05-12T16:27:21.122Z,9.15
2023-05-12T16:29:49.599Z,11.65
2023-05-12T16:32:17.540Z,10.30
2023-05-12T16:34:45.081Z,11.13
2023-05-12T16:37:12.508Z,9.05
2023-05-12T16:39:39.894Z,6.25
2023-05-12T16:42:07.516Z,7.07
2023-05-12T16:44:34.789Z,6.68
2023-05-12T16:47:02.142Z,7.97
2023-05-12T16:49:29.440Z,8.80
2023-05-12T16:51:56.738Z,6.88
2023-05-12T16:54:24.178Z,5.43
2023-05-12T16:56:51.519Z,9.93
2023-05-12T16:59:18.816Z,6.22
2023-05-12T17:01:46.148Z,7.25
2023-05-12T17:04:15.364Z,6.10
2023-05-12T17:06:43.279Z,7.35
2023-05-12T17:09:10.562Z,5.50
2023-05-12T17:11:38.052Z,5.90
2023-05-12T17:14:05.385Z,5.43
2023-05-12T17:16:32.717Z,12.07
2023-05-12T17:21:30.210Z,5.32
2023-05-12T17:23:57.724Z,5.57
2023-05-12T17:26:27.688Z,6.38
2023-05-12T17:28:55.480Z,7.93
2023-05-12T17:31:22.944Z,8.80
2023-05-12T17:33:50.387Z,5.88
2023-05-12T17:36:18.657Z,6.68
2023-05-12T17:38:46.250Z,5.85
2023-05-12T17:41:13.655Z,10.75
2023-05-12T17:43:41.453Z,6.13
2023-05-12T17:46:09.226Z,6.00
2023-05-12T17:48:38.278Z,5.78
2023-05-12T17:51:05.753Z,7.15
2023-05-12T17:53:33.893Z,6.72
2023-05-12T17:56:01.579Z,6.38
2023-05-12T17:58:28.991Z,5.15
2023-05-12T18:00:56.712Z,17.75
2023-05-12T18:03:24.245Z,9.85
2023-05-12T18:05:52.659Z,7.97
2023-05-12T18:08:20.033Z,7.65
2023-05-12T18:10:47.425Z,6.95
2023-05-12T18:13:15.486Z,4.88
2023-05-12T18:15:42.995Z,4.78
2023-05-12T18:18:10.727Z,7.93
2023-05-12T18:20:38.260Z,7.75
2023-05-12T18:23:05.686Z,7.80
2023-05-12T18:25:33.122Z,6.65
2023-05-12T18:28:00.453Z,7.07
2023-05-12T18:30:27.792Z,7.82
2023-05-12T18:32:55.248Z,9.18
2023-05-12T18:35:23.032Z,11.05
2023-05-12T18:37:50.583Z,8.93
2023-05-12T18:40:17.948Z,6.50
2023-05-12T18:42:45.294Z,12.45
2023-05-12T18:45:12.692Z,10.48
2023-05-12T18:47:40.117Z,6.95
2023-05-12T18:50:08.008Z,9.27
2023-05-12T18:52:35.872Z,10.40
2023-05-12T18:55:03.271Z,6.22
2023-05-12T18:57:30.616Z,8.25
2023-05-12T18:59:57.970Z,6.78
2023-05-12T19:02:25.368Z,5.57
2023-05-12T19:04:53.385Z,5.55
2023-05-12T19:07:20.736Z,6.53
2023-05-12T19:09:48.160Z,7.45
2023-05-12T19:12:15.492Z,12.60
2023-05-12T19:14:43.228Z,6.10
2023-05-12T19:17:10.860Z,12.57
2023-05-12T19:19:38.368Z,7.43
2023-05-12T19:22:05.802Z,10.70
2023-05-12T19:24:33.172Z,6.85
2023-05-12T19:27:01.317Z,7.75
2023-05-12T19:29:28.676Z,7.05
2023-05-12T19:31:56.217Z,18.60
2023-05-12T19:34:23.927Z,14.52
2023-05-12T19:36:52.375Z,5.80
2023-05-12T19:39:19.662Z,9.40
2023-05-12T19:41:47.106Z,7.95
2023-05-12T19:44:14.380Z,9.20
2023-05-12T19:46:41.703Z,7.70
2023-05-12T19:49:09.213Z,6.68
2023-05-12T19:51:36.681Z,7.70
2023-05-12T19:54:06.344Z,5.68
2023-05-12T19:56:33.819Z,13.05
2023-05-12T19:59:01.178Z,8.43
2023-05-12T20:01:28.616Z,7.15
2023-05-12T20:03:56.582Z,9.00
2023-05-12T20:06:24.984Z,7.15
2023-05-12T20:08:52.569Z,9.90
2023-05-12T20:11:19.949Z,8.68
2023-05-12T20:13:47.275Z,8.07
2023-05-12T20:16:14.710Z,6.80
2023-05-12T20:18:42.126Z,7.55
2023-05-12T20:21:09.522Z,7.70
2023-05-12T20:23:36.920Z,7.53
2023-05-12T20:26:04.845Z,8.75
2023-05-12T20:28:32.177Z,9.85
2023-05-12T20:30:59.539Z,9.90
2023-05-12T20:33:26.940Z,8.80
2023-05-12T20:35:54.282Z,8.10
2023-05-12T20:38:21.672Z,12.93
2023-05-12T20:40:48.988Z,9.10
2023-05-12T20:43:16.359Z,9.80
2023-05-12T20:45:43.688Z,7.50
2023-05-12T20:48:11.129Z,7.90
2023-05-12T20:50:38.493Z,9.75
2023-05-12T20:53:05.978Z,10.73
2023-05-12T20:55:33.537Z,11.27
2023-05-12T20:58:00.907Z,10.75
2023-05-12T21:00:28.285Z,8.70
2023-05-12T21:02:56.127Z,11.75
2023-05-12T21:05:23.668Z,8.38
2023-05-12T21:07:51.433Z,9.23
2023-05-12T21:10:19.074Z,10.35
2023-05-12T21:12:46.807Z,8.32
2023-05-12T21:15:14.126Z,10.27
2023-05-12T21:17:41.673Z,8.88
2023-05-12T21:20:10.332Z,9.88
2023-05-12T21:22:38.016Z,8.77
2023-05-12T21:25:05.913Z,9.45
2023-05-12T21:27:33.189Z,9.43
2023-05-12T21:30:00.540Z,12.98
2023-05-12T21:32:27.968Z,12.40
2023-05-12T21:34:55.301Z,9.00
2023-05-12T21:37:22.595Z,8.48
2023-05-12T21:39:49.938Z,9.05
2023-05-12T21:42:17.230Z,8.88
2023-05-12T21:44:44.542Z,12.68
2023-05-12T21:47:11.830Z,8.23
2023-05-12T21:49:39.487Z,9.07
2023-05-12T21:52:06.826Z,11.35
2023-05-12T21:54:34.227Z,7.80
2023-05-12T21:57:01.658Z,11.43
2023-05-12T21:59:29.307Z,8.35
2023-05-12T22:01:56.816Z,7.35
2023-05-12T22:04:24.221Z,9.82
2023-05-12T22:06:51.812Z,9.30
2023-05-12T22:09:20.368Z,12.18
2023-05-12T22:11:47.777Z,8.52
2023-05-12T22:14:15.135Z,7.97
2023-05-12T22:16:42.925Z,7.55
2023-05-12T22:19:10.522Z,8.40
2023-05-12T22:21:37.962Z,8.73
2023-05-12T22:24:05.641Z,7.10
2023-05-12T22:26:32.995Z,7.28
2023-05-12T22:29:01.227Z,6.13
2023-05-12T22:31:28.664Z,7.43
2023-05-12T22:33:56.003Z,9.90
2023-05-12T22:36:23.518Z,7.93
2023-05-12T22:38:50.805Z,7.18
2023-05-12T22:41:18.150Z,9.20
2023-05-12T22:43:45.545Z,11.13
2023-05-12T22:46:12.851Z,10.45
2023-05-12T22:48:40.298Z,7.45
2023-05-12T22:51:07.620Z,10.10
2023-05-12T22:53:41.342Z,7.82
2023-05-12T22:56:08.689Z,7.88
2023-05-12T22:58:35.977Z,8.02
2023-05-12T23:01:03.463Z,6.20
2023-05-12T23:03:32.528Z,7.65
2023-05-12T23:05:59.856Z,8.57
2023-05-12T23:08:27.146Z,8.82
2023-05-12T23:10:54.451Z,7.82
2023-05-12T23:13:21.847Z,8.73
2023-05-12T23:15:49.347Z,12.95
2023-05-12T23:18:16.673Z,9.15
2023-05-12T23:20:44.027Z,9.82
2023-05-12T23:23:11.598Z,11.80
2023-05-12T23:25:38.971Z,12.10
2023-05-12T23:28:06.535Z,9.85
2023-05-12T23:30:33.956Z,10.27
2023-05-12T23:33:01.412Z,10.70
2023-05-12T23:35:28.916Z,10.63
2023-05-12T23:37:56.266Z,13.63
2023-05-12T23:40:23.805Z,8.90
2023-05-12T23:42:51.332Z,12.18
2023-05-12T23:45:18.664Z,9.43
2023-05-12T23:47:46.083Z,9.60
2023-05-12T23:50:13.487Z,10.43
2023-05-12T23:52:40.895Z,9.65
2023-05-12T23:55:08.631Z,13.43
2023-05-12T23:57:35.972Z,13.85
